Time;durP1;ratioP1;P1;durP2;ratioP2;P2;SDS_P1;SDS_P2;PMS_P1;PMS_P2;Temp;Humidity;BMP_temperature;BMP_pressure;BME280_temperature;BME280_humidity;BME280_pressure;Samples;Min_cycle;Max_cycle;Signal;HPM_P1;HPM_P2
2021/01/06 00:04:30;;;;;;;32.03;15.98;;;;;;;2.02;100.00;94739.47;10494687;28;20683;-81
2021/01/06 00:09:31;;;;;;;30.27;15.10;;;;;;;2.06;100.00;94759.19;10477309;28;20078;-81
2021/01/06 00:14:31;;;;;;;33.40;16.77;;;;;;;2.23;100.00;94756.78;10476604;28;20029;-81
2021/01/06 00:19:32;;;;;;;36.63;18.60;;;;;;;2.27;100.00;94734.09;10505127;28;20344;-81
2021/01/06 00:24:32;;;;;;;31.90;15.03;;;;;;;2.17;100.00;94755.81;10475749;28;20032;-81
2021/01/06 00:29:32;;;;;;;34.60;13.93;;;;;;;2.26;100.00;94769.63;10495218;28;20749;-82
2021/01/06 00:34:33;;;;;;;29.83;15.17;;;;;;;2.44;100.00;94783.91;10494332;28;20021;-81
2021/01/06 00:39:33;;;;;;;26.80;14.13;;;;;;;2.62;100.00;94791.06;10485916;28;20266;-80
2021/01/06 00:44:33;;;;;;;27.07;12.70;;;;;;;2.71;100.00;94790.53;10489961;28;20271;-80
2021/01/06 00:49:34;;;;;;;27.60;12.37;;;;;;;2.74;100.00;94798.03;10492996;28;21156;-80
2021/01/06 00:54:36;;;;;;;19.43;9.53;;;;;;;2.84;100.00;94804.69;10494080;28;20334;-80
2021/01/06 00:59:37;;;;;;;20.10;9.45;;;;;;;2.75;100.00;94822.75;10494430;28;20765;-80
2021/01/06 01:04:37;;;;;;;14.53;8.27;;;;;;;2.69;100.00;94808.53;10495505;28;20024;-80
2021/01/06 01:09:38;;;;;;;18.97;9.50;;;;;;;2.66;100.00;94816.91;10501233;28;20271;-80
2021/01/06 01:14:38;;;;;;;19.02;9.77;;;;;;;2.68;100.00;94804.25;10501122;28;20166;-80
2021/01/06 01:19:38;;;;;;;25.93;10.50;;;;;;;2.36;100.00;94811.53;10500537;28;20127;-80
2021/01/06 01:24:39;;;;;;;22.77;9.13;;;;;;;2.37;100.00;94789.28;10482578;28;20122;-80
2021/01/06 01:29:39;;;;;;;20.70;10.70;;;;;;;1.99;100.00;94795.56;10500498;28;20480;-80
2021/01/06 01:34:39;;;;;;;30.20;12.17;;;;;;;2.20;100.00;94789.03;10500340;28;20701;-81
2021/01/06 01:39:40;;;;;;;23.17;12.43;;;;;;;2.17;100.00;94790.28;10500075;28;20811;-81
2021/01/06 01:44:58;;;;;;;25.33;10.47;;;;;;;2.16;100.00;94793.16;10481888;28;20017;-81
2021/01/06 01:49:59;;;;;;;24.65;11.50;;;;;;;2.24;100.00;94784.94;10493210;28;20297;-80
2021/01/06 01:55:02;;;;;;;31.33;11.00;;;;;;;2.32;100.00;94781.19;10471234;28;20020;-80
2021/01/06 02:00:18;;;;;;;23.42;11.57;;;;;;;2.30;100.00;94781.41;10470531;28;20021;-80
2021/01/06 02:05:24;;;;;;;21.48;10.57;;;;;;;2.00;100.00;94770.69;10488959;28;20020;-80
2021/01/06 02:10:38;;;;;;;21.58;10.50;;;;;;;2.09;100.00;94772.00;10488110;28;20509;-80
2021/01/06 02:15:59;;;;;;;27.25;11.43;;;;;;;2.16;100.00;94785.22;10487173;28;20032;-80
2021/01/06 02:21:21;;;;;;;21.55;10.88;;;;;;;2.25;100.00;94791.03;10487906;28;20040;-80
2021/01/06 02:26:25;;;;;;;23.55;11.57;;;;;;;2.18;100.00;94765.41;10471434;28;20025;-80
2021/01/06 02:31:27;;;;;;;23.85;10.13;;;;;;;2.14;100.00;94766.88;10488719;28;20143;-80
2021/01/06 02:36:28;;;;;;;20.17;9.90;;;;;;;2.28;100.00;94759.59;10478418;28;20103;-80
2021/01/06 02:41:28;;;;;;;20.88;11.38;;;;;;;2.38;100.00;94767.03;10479444;28;20071;-80
2021/01/06 02:46:29;;;;;;;18.87;9.70;;;;;;;2.36;100.00;94775.22;10495572;28;20178;-80
2021/01/06 02:52:02;;;;;;;21.35;10.48;;;;;;;2.29;100.00;94774.47;10471499;28;20263;-81
2021/01/06 02:57:05;;;;;;;15.10;7.90;;;;;;;2.39;100.00;94756.19;10485830;28;20404;-80
2021/01/06 03:02:09;;;;;;;17.48;10.13;;;;;;;2.26;100.00;94755.53;10488252;28;20032;-81
2021/01/06 03:07:12;;;;;;;22.27;9.35;;;;;;;2.44;100.00;94746.78;10494401;28;20458;-80
2021/01/06 03:12:21;;;;;;;24.65;9.80;;;;;;;2.54;100.00;94747.03;10493175;28;20476;-80
2021/01/06 03:17:23;;;;;;;16.73;9.73;;;;;;;2.59;100.00;94738.44;10490724;28;20032;-81
2021/01/06 03:22:26;;;;;;;15.40;8.95;;;;;;;2.41;100.00;94718.03;10487802;28;20522;-80
2021/01/06 03:27:28;;;;;;;18.20;10.18;;;;;;;2.29;100.00;94741.81;10490484;28;20029;-81
2021/01/06 03:32:44;;;;;;;23.27;10.00;;;;;;;2.36;100.00;94748.69;10475821;28;20028;-80
2021/01/06 03:37:55;;;;;;;15.40;9.73;;;;;;;2.45;100.00;94735.13;10495308;28;20032;-80
2021/01/06 03:42:56;;;;;;;16.45;9.25;;;;;;;2.52;100.00;94736.66;10495598;28;20079;-80
2021/01/06 03:48:03;;;;;;;23.40;10.00;;;;;;;2.52;100.00;94747.28;10495400;28;20411;-81
2021/01/06 03:53:13;;;;;;;25.30;10.00;;;;;;;2.60;100.00;94721.50;10495634;28;20070;-80
2021/01/06 03:58:37;;;;;;;20.67;10.10;;;;;;;2.66;100.00;94733.84;10495710;28;20033;-81
2021/01/06 04:04:03;;;;;;;22.75;9.70;;;;;;;2.61;100.00;94753.09;10494863;28;20031;-80
2021/01/06 04:09:07;;;;;;;17.38;8.38;;;;;;;2.67;100.00;94749.56;10494999;28;20028;-80
2021/01/06 04:14:07;;;;;;;18.63;10.05;;;;;;;2.70;100.00;94761.56;10494652;28;20138;-81
2021/01/06 04:19:08;;;;;;;16.58;10.57;;;;;;;2.53;100.00;94751.56;10494621;28;20113;-81
2021/01/06 04:24:12;;;;;;;21.85;11.60;;;;;;;2.16;100.00;94782.56;10494467;28;20154;-81
2021/01/06 04:29:14;;;;;;;22.50;12.43;;;;;;;2.19;100.00;94796.19;10493849;28;20036;-81
2021/01/06 04:34:14;;;;;;;23.40;13.13;;;;;;;2.19;100.00;94784.75;10489010;28;20510;-81
2021/01/06 04:39:14;;;;;;;23.50;12.70;;;;;;;2.28;100.00;94777.34;10495578;28;20042;-80
2021/01/06 04:44:21;;;;;;;23.98;13.38;;;;;;;2.14;100.00;94790.72;10501648;28;20282;-82
2021/01/06 04:49:33;;;;;;;32.58;12.80;;;;;;;2.20;100.00;94781.09;10478680;28;20040;-81
2021/01/06 04:54:48;;;;;;;31.45;15.18;;;;;;;2.09;100.00;94765.91;10501110;28;20067;-81
2021/01/06 05:00:00;;;;;;;35.45;17.13;;;;;;;2.16;100.00;94758.69;10491016;28;20028;-81
2021/01/06 05:05:13;;;;;;;32.40;16.65;;;;;;;2.30;100.00;94775.28;10498888;28;20158;-81
2021/01/06 05:10:34;;;;;;;29.95;15.63;;;;;;;2.34;100.00;94768.50;10500038;28;20028;-80
2021/01/06 05:15:42;;;;;;;35.00;16.08;;;;;;;2.43;100.00;94769.00;10483532;28;20090;-81
2021/01/06 05:20:42;;;;;;;30.92;16.27;;;;;;;2.32;100.00;94771.38;10534885;28;20089;-80
2021/01/06 05:25:43;;;;;;;45.00;19.00;;;;;;;2.49;100.00;94761.00;10549660;28;20848;-81
2021/01/06 05:30:47;;;;;;;40.72;18.80;;;;;;;2.63;100.00;94759.00;10533146;28;20753;-76
2021/01/06 05:35:47;;;;;;;37.95;16.23;;;;;;;2.56;100.00;94756.41;10531832;28;20032;-76
2021/01/06 05:40:48;;;;;;;29.52;14.48;;;;;;;2.35;100.00;94812.56;10493437;28;20040;-76
2021/01/06 05:45:53;;;;;;;32.53;14.63;;;;;;;2.51;100.00;94774.84;10527430;28;20032;-76
2021/01/06 05:51:06;;;;;;;35.78;16.27;;;;;;;2.68;100.00;94784.84;10530848;28;20032;-76
2021/01/06 05:56:36;;;;;;;39.00;16.92;;;;;;;2.84;100.00;94794.06;10512551;28;20142;-76
2021/01/06 06:01:50;;;;;;;35.92;18.38;;;;;;;2.91;100.00;94800.91;10503120;28;20048;-76
2021/01/06 06:07:11;;;;;;;35.72;17.30;;;;;;;2.72;100.00;94805.44;10521783;28;20040;-74
2021/01/06 06:12:39;;;;;;;32.13;17.30;;;;;;;2.59;100.00;94810.88;10499695;28;20780;-76
2021/01/06 06:18:14;;;;;;;44.28;17.10;;;;;;;2.68;100.00;94801.59;10503908;28;20036;-76
2021/01/06 06:23:43;;;;;;;36.50;17.65;;;;;;;2.63;100.00;94800.66;10496271;28;20519;-75
2021/01/06 06:29:03;;;;;;;38.35;16.80;;;;;;;2.66;100.00;94808.16;10520119;28;20836;-76
2021/01/06 06:34:07;;;;;;;40.47;17.40;;;;;;;2.76;100.00;94811.09;10528932;28;20020;-76
2021/01/06 06:39:29;;;;;;;39.15;18.25;;;;;;;2.91;100.00;94816.03;10528343;28;20024;-76
2021/01/06 06:44:33;;;;;;;37.60;17.23;;;;;;;2.98;100.00;94813.28;10499460;28;20024;-76
2021/01/06 06:50:07;;;;;;;32.35;17.23;;;;;;;3.17;100.00;94817.53;10486082;28;20051;-76
2021/01/06 06:55:44;;;;;;;33.88;16.17;;;;;;;3.05;100.00;94829.94;10494086;28;20050;-75
2021/01/06 07:00:45;;;;;;;42.17;19.00;;;;;;;3.14;100.00;94843.72;10524834;28;20020;-76
2021/01/06 07:05:56;;;;;;;44.83;19.83;;;;;;;3.23;100.00;94871.59;10501761;28;20139;-77
2021/01/06 07:11:16;;;;;;;38.90;18.60;;;;;;;3.44;100.00;94846.41;10468307;28;20556;-76
2021/01/06 07:16:21;;;;;;;35.00;17.88;;;;;;;3.60;100.00;94842.31;10485955;28;20024;-76
2021/01/06 07:21:31;;;;;;;42.70;19.02;;;;;;;3.60;100.00;94839.66;10501036;28;20122;-75
2021/01/06 07:26:41;;;;;;;42.20;18.88;;;;;;;3.92;100.00;94842.00;10508771;28;20031;-75
2021/01/06 07:32:10;;;;;;;42.42;19.50;;;;;;;4.14;100.00;94847.59;10508210;28;20073;-76
2021/01/06 07:37:26;;;;;;;41.70;19.67;;;;;;;4.32;100.00;94843.22;10507318;28;20086;-76
2021/01/06 07:42:46;;;;;;;33.65;17.80;;;;;;;4.68;100.00;94852.81;10526002;28;20174;-75
2021/01/06 07:47:58;;;;;;;36.08;17.02;;;;;;;4.36;100.00;94868.34;10480282;28;20056;-75
2021/01/06 07:53:08;;;;;;;36.63;19.45;;;;;;;4.66;100.00;94864.72;10484095;28;20107;-76
2021/01/06 07:58:31;;;;;;;40.33;18.15;;;;;;;4.82;100.00;94874.69;10489313;28;20391;-75
2021/01/06 08:04:03;;;;;;;36.17;19.08;;;;;;;4.92;100.00;94872.22;10497099;28;20028;-76
2021/01/06 08:09:03;;;;;;;28.30;15.70;;;;;;;5.10;100.00;94865.94;10518523;28;20043;-74
2021/01/06 08:14:04;;;;;;;46.65;18.95;;;;;;;5.17;100.00;94873.00;10496524;28;20017;-74
2021/01/06 08:19:32;;;;;;;35.93;18.47;;;;;;;5.11;100.00;94874.75;10507072;28;20059;-75
2021/01/06 08:24:41;;;;;;;36.00;16.85;;;;;;;4.91;100.00;94875.94;10491226;28;20567;-74
2021/01/06 08:29:42;;;;;;;44.00;20.08;;;;;;;5.01;100.00;94906.50;10491931;28;20035;-73
2021/01/06 08:34:57;;;;;;;45.75;20.67;;;;;;;5.49;100.00;94892.03;10508361;28;20021;-75
2021/01/06 08:39:59;;;;;;;40.60;17.55;;;;;;;5.59;100.00;94888.75;10493758;28;20039;-74
2021/01/06 08:45:01;;;;;;;35.22;17.73;;;;;;;5.67;100.00;94880.38;10495051;28;20375;-74
2021/01/06 08:50:16;;;;;;;35.63;17.42;;;;;;;5.19;100.00;94884.22;10504306;28;20036;-75
2021/01/06 08:55:30;;;;;;;40.10;19.73;;;;;;;5.49;100.00;94889.38;10490795;28;20025;-75
2021/01/06 09:00:33;;;;;;;43.33;19.35;;;;;;;5.14;100.00;94890.28;10522124;28;20062;-75
2021/01/06 09:05:42;;;;;;;46.60;19.45;;;;;;;5.46;100.00;94884.50;10500829;28;20024;-75
2021/01/06 09:11:01;;;;;;;52.65;20.45;;;;;;;5.69;100.00;94890.78;10505832;28;20070;-75
2021/01/06 09:16:13;;;;;;;47.50;19.92;;;;;;;6.04;100.00;94863.16;10488783;28;20759;-75
2021/01/06 09:21:31;;;;;;;35.58;18.70;;;;;;;6.96;100.00;94867.25;10489508;28;20056;-74
2021/01/06 09:26:32;;;;;;;38.38;19.40;;;;;;;7.83;100.00;94853.25;10488944;28;20036;-74
2021/01/06 09:32:00;;;;;;;36.50;15.93;;;;;;;8.71;100.00;94844.88;10489136;28;20028;-75
2021/01/06 09:37:02;;;;;;;45.17;17.73;;;;;;;9.30;92.14;94829.63;10486363;28;20041;-74
2021/01/06 09:42:04;;;;;;;35.10;13.05;;;;;;;10.11;85.13;94829.28;10489171;28;20047;-74
2021/01/06 09:47:30;;;;;;;32.55;14.32;;;;;;;10.87;78.49;94824.94;10489276;28;20059;-74
2021/01/06 09:52:35;;;;;;;29.52;13.77;;;;;;;11.60;70.24;94804.78;10488307;28;20035;-74
2021/01/06 09:57:38;;;;;;;26.92;11.88;;;;;;;11.97;67.25;94781.94;10522310;28;20036;-75
2021/01/06 10:02:39;;;;;;;28.00;12.13;;;;;;;14.52;54.91;94767.53;10512585;28;20020;-76
2021/01/06 10:07:45;;;;;;;21.23;10.18;;;;;;;16.77;45.83;94740.47;10488365;28;20020;-74
2021/01/06 10:13:04;;;;;;;24.08;10.35;;;;;;;17.37;42.65;94736.44;10487260;28;20028;-74
2021/01/06 10:18:26;;;;;;;21.00;9.07;;;;;;;16.04;44.16;94738.75;10500267;28;20071;-74
2021/01/06 10:23:36;;;;;;;22.42;10.13;;;;;;;13.54;50.22;94745.84;10505052;28;20073;-74
2021/01/06 10:28:48;;;;;;;28.95;11.48;;;;;;;13.27;56.21;94752.59;10528391;28;20439;-74
2021/01/06 10:34:07;;;;;;;29.02;12.73;;;;;;;12.46;60.51;94750.53;10528195;28;20496;-74
2021/01/06 10:39:21;;;;;;;23.83;11.10;;;;;;;14.25;53.01;94732.31;10492925;28;20028;-75
2021/01/06 10:44:31;;;;;;;26.13;12.82;;;;;;;16.46;46.15;94718.78;10486174;28;20025;-74
2021/01/06 10:49:31;;;;;;;24.23;8.23;;;;;;;16.23;43.49;94711.47;10485714;28;20094;-74
2021/01/06 10:54:41;;;;;;;24.57;9.70;;;;;;;16.70;43.21;94686.69;10516411;28;20085;-74
2021/01/06 11:00:10;;;;;;;29.42;9.63;;;;;;;16.18;44.24;94657.34;10528076;28;20032;-74
2021/01/06 11:05:19;;;;;;;28.00;9.95;;;;;;;15.17;47.30;94659.47;10519904;28;20111;-73
2021/01/06 11:10:58;;;;;;;19.45;9.50;;;;;;;15.93;46.10;94658.00;10527484;28;20028;-74
2021/01/06 11:16:10;;;;;;;20.90;9.32;;;;;;;19.05;39.93;94635.22;10527693;28;20028;-74
2021/01/06 11:21:16;;;;;;;21.20;7.40;;;;;;;21.48;34.74;94613.09;10507844;28;20075;-74
2021/01/06 11:26:24;;;;;;;17.40;6.28;;;;;;;21.89;32.53;94609.56;10526885;28;20035;-74
2021/01/06 11:31:27;;;;;;;8.13;3.88;;;;;;;22.16;31.04;94613.44;10526816;28;20038;-74
2021/01/06 11:36:41;;;;;;;13.05;1.98;;;;;;;23.57;28.67;94608.59;10525715;28;20047;-74
2021/01/06 11:41:47;;;;;;;1.40;0.70;;;;;;;20.57;30.78;94597.78;10508040;28;20036;-75
2021/01/06 11:47:19;;;;;;;2.13;1.00;;;;;;;21.45;29.80;94593.88;10526078;28;20292;-74
2021/01/06 11:52:36;;;;;;;2.72;0.82;;;;;;;23.18;28.20;94599.16;10518533;28;20032;-75
2021/01/06 11:57:54;;;;;;;1.63;1.30;;;;;;;21.79;29.17;94594.44;10466645;28;20030;-74
2021/01/06 12:03:18;;;;;;;1.38;0.60;;;;;;;20.91;30.15;94606.69;10484558;28;20020;-74
2021/01/06 12:09:07;;;;;;;0.47;0.30;;;;;;;17.97;33.98;94605.50;10483435;28;20024;-73
2021/01/06 12:14:42;;;;;;;1.98;0.77;;;;;;;16.56;37.17;94596.41;10506917;28;20032;-74
2021/01/06 12:20:00;;;;;;;4.97;0.73;;;;;;;15.30;38.70;94609.06;10518999;28;20415;-76
2021/01/06 12:25:36;;;;;;;2.55;0.77;;;;;;;14.11;42.11;94626.88;10483623;28;20025;-76
2021/01/06 12:30:41;;;;;;;1.85;0.88;;;;;;;13.49;42.86;94620.63;10486697;28;20044;-76
2021/01/06 12:35:44;;;;;;;2.50;0.65;;;;;;;13.64;44.07;94614.16;10483363;28;20033;-76
2021/01/06 12:40:50;;;;;;;2.97;0.77;;;;;;;13.18;45.33;94624.84;10477920;28;20058;-75
2021/01/06 12:46:02;;;;;;;1.77;0.85;;;;;;;12.93;45.11;94627.56;10483945;28;20036;-76
2021/01/06 12:51:16;;;;;;;2.90;0.90;;;;;;;12.77;46.53;94627.00;10487623;28;20537;-76
2021/01/06 12:56:31;;;;;;;2.67;1.15;;;;;;;12.57;47.26;94635.31;10482490;28;20361;-75
2021/01/06 13:01:43;;;;;;;1.52;0.70;;;;;;;12.57;47.90;94643.41;10494272;28;20409;-76
2021/01/06 13:06:55;;;;;;;0.85;0.63;;;;;;;12.12;49.11;94624.78;10489081;28;20052;-76
2021/01/06 13:12:01;;;;;;;1.00;0.60;;;;;;;11.86;50.50;94637.66;10489809;28;20042;-75
2021/01/06 13:17:13;;;;;;;2.85;0.95;;;;;;;11.64;52.83;94644.31;10489469;28;20020;-75
2021/01/06 13:22:29;;;;;;;0.68;0.68;;;;;;;11.60;52.38;94648.66;10489763;28;20076;-78
2021/01/06 13:27:52;;;;;;;1.92;0.70;;;;;;;11.48;53.57;94692.06;10489462;28;20052;-76
2021/01/06 13:33:01;;;;;;;2.22;0.57;;;;;;;11.51;53.83;94686.13;10489315;28;20467;-76
2021/01/06 13:38:09;;;;;;;3.72;0.73;;;;;;;11.28;56.85;94695.69;10497910;28;20025;-76
2021/01/06 13:43:40;;;;;;;5.65;0.70;;;;;;;11.13;59.31;94691.19;10488870;28;20036;-76
2021/01/06 13:49:01;;;;;;;0.55;0.43;;;;;;;11.10;60.75;94676.41;10500812;28;20128;-76
2021/01/06 13:54:08;;;;;;;1.60;0.63;;;;;;;11.02;60.11;94690.44;10518893;28;20111;-76
2021/01/06 13:59:47;;;;;;;1.07;0.60;;;;;;;10.84;63.21;94680.31;10508263;28;20039;-77
2021/01/06 14:04:57;;;;;;;2.17;0.73;;;;;;;10.76;65.51;94681.69;10530866;28;20040;-77
2021/01/06 14:10:13;;;;;;;2.42;0.90;;;;;;;10.63;68.85;94671.53;10529967;28;20114;-76
2021/01/06 14:15:43;;;;;;;4.45;0.85;;;;;;;10.64;69.25;94675.84;10510415;28;20024;-76
2021/01/06 14:21:03;;;;;;;3.53;0.88;;;;;;;10.62;70.83;94673.44;10529179;28;20080;-77
2021/01/06 14:26:03;;;;;;;6.45;0.90;;;;;;;10.68;71.74;94671.53;10530013;28;20039;-77
2021/01/06 14:31:15;;;;;;;4.00;0.97;;;;;;;10.78;72.34;94672.25;10520212;28;20094;-77
2021/01/06 14:36:38;;;;;;;1.33;0.82;;;;;;;10.82;67.26;94672.53;10486913;28;20040;-76
2021/01/06 14:41:48;;;;;;;3.10;1.00;;;;;;;10.94;69.97;94659.56;10518092;28;20109;-76
2021/01/06 14:47:08;;;;;;;5.30;3.35;;;;;;;11.00;72.38;94657.66;10519415;28;20028;-75
2021/01/06 14:52:21;;;;;;;5.03;1.42;;;;;;;10.81;73.37;94652.09;10459461;28;20397;-76
2021/01/06 14:57:33;;;;;;;4.82;1.63;;;;;;;10.83;70.90;94657.19;10468077;28;20028;-77
2021/01/06 15:02:38;;;;;;;7.18;2.92;;;;;;;10.77;66.73;94637.59;10484317;28;20059;-76
2021/01/06 15:07:56;;;;;;;10.38;3.80;;;;;;;10.42;70.22;94656.28;10501187;28;20086;-77
2021/01/06 15:13:02;;;;;;;10.23;3.85;;;;;;;10.34;72.80;94656.84;10486067;28;20040;-77
2021/01/06 15:18:06;;;;;;;11.90;5.18;;;;;;;10.32;74.41;94658.97;10485363;28;20067;-76
2021/01/06 15:23:29;;;;;;;7.43;4.78;;;;;;;10.17;77.39;94659.84;10484642;28;20111;-76
2021/01/06 15:28:43;;;;;;;7.13;3.80;;;;;;;10.09;79.27;94658.50;10492379;28;20032;-76
2021/01/06 15:33:53;;;;;;;9.02;4.10;;;;;;;10.06;79.71;94664.41;10525959;28;20028;-76
2021/01/06 15:38:57;;;;;;;6.22;3.58;;;;;;;9.59;84.39;94657.47;10525257;28;20032;-76
2021/01/06 15:43:58;;;;;;;7.63;4.10;;;;;;;9.17;88.43;94655.84;10484386;28;20028;-77
2021/01/06 15:49:06;;;;;;;9.57;4.47;;;;;;;8.88;92.96;94661.66;10466641;28;20020;-77
2021/01/06 15:54:16;;;;;;;7.18;4.50;;;;;;;8.66;94.12;94651.16;10484239;28;20037;-76
2021/01/06 15:59:20;;;;;;;8.27;4.57;;;;;;;8.50;95.35;94652.97;10492120;28;20145;-77
2021/01/06 16:04:22;;;;;;;8.30;4.28;;;;;;;8.42;96.67;94653.44;10505559;28;20028;-77
2021/01/06 16:09:34;;;;;;;8.35;4.50;;;;;;;8.42;97.43;94662.28;10503637;28;20024;-77
2021/01/06 16:14:42;;;;;;;11.85;4.47;;;;;;;8.43;97.24;94671.09;10504462;28;20440;-77
2021/01/06 16:19:58;;;;;;;12.27;4.83;;;;;;;8.57;97.07;94687.53;10507456;28;20491;-77
2021/01/06 16:25:13;;;;;;;7.95;4.45;;;;;;;8.47;96.51;94675.72;10505253;28;20036;-77
2021/01/06 16:30:21;;;;;;;9.50;3.97;;;;;;;8.28;96.71;94664.63;10520795;28;20087;-77
2021/01/06 16:35:21;;;;;;;9.00;4.75;;;;;;;8.11;99.07;94667.47;10521091;28;20512;-77
2021/01/06 16:40:23;;;;;;;5.70;3.97;;;;;;;8.02;99.91;94656.47;10531097;28;20028;-77
2021/01/06 16:45:25;;;;;;;7.57;4.13;;;;;;;8.14;99.38;94650.09;10531354;28;20121;-77
2021/01/06 16:50:29;;;;;;;11.18;4.60;;;;;;;8.15;97.93;94665.06;10529266;28;20048;-77
2021/01/06 16:55:32;;;;;;;11.93;3.97;;;;;;;8.07;97.29;94662.91;10527318;28;20140;-77
2021/01/06 17:00:36;;;;;;;6.55;3.63;;;;;;;8.12;96.57;94658.38;10524228;28;20400;-75
2021/01/06 17:05:37;;;;;;;9.23;4.50;;;;;;;8.13;96.74;94653.81;10525559;28;20058;-73
2021/01/06 17:10:39;;;;;;;9.05;4.80;;;;;;;8.25;95.12;94646.41;10524290;28;20028;-73
2021/01/06 17:15:46;;;;;;;12.07;5.60;;;;;;;8.11;96.43;94635.34;10524739;28;20020;-73
2021/01/06 17:20:53;;;;;;;16.25;6.93;;;;;;;8.16;97.96;94631.88;10509724;28;20064;-73
2021/01/06 17:26:06;;;;;;;19.08;8.65;;;;;;;8.28;99.19;94648.56;10502939;28;20037;-73
2021/01/06 17:31:18;;;;;;;26.98;9.50;;;;;;;8.31;100.00;94645.34;10508042;28;20515;-73
2021/01/06 17:36:19;;;;;;;23.25;9.68;;;;;;;8.31;100.00;94628.47;10500251;28;20108;-73
2021/01/06 17:41:20;;;;;;;19.70;8.25;;;;;;;8.26;100.00;94645.34;10500586;28;20020;-73
2021/01/06 17:46:20;;;;;;;16.48;8.23;;;;;;;8.19;100.00;94652.78;10498447;28;20016;-73
2021/01/06 17:51:22;;;;;;;18.63;7.90;;;;;;;8.07;100.00;94658.34;10482882;28;20032;-74
2021/01/06 17:56:22;;;;;;;21.00;8.93;;;;;;;7.99;100.00;94643.56;10500298;28;20032;-73
2021/01/06 18:01:23;;;;;;;17.15;7.70;;;;;;;7.92;100.00;94640.31;10501062;28;20082;-74
2021/01/06 18:06:27;;;;;;;19.55;8.27;;;;;;;8.08;100.00;94637.72;10487433;28;20028;-73
2021/01/06 18:11:29;;;;;;;16.63;7.25;;;;;;;8.20;100.00;94646.38;10513302;28;20464;-73
2021/01/06 18:16:32;;;;;;;11.57;6.53;;;;;;;8.23;100.00;94643.16;10510479;28;20060;-73
2021/01/06 18:21:38;;;;;;;16.67;8.63;;;;;;;8.20;100.00;94643.69;10505051;28;20047;-73
2021/01/06 18:26:39;;;;;;;18.45;8.25;;;;;;;8.12;100.00;94622.75;10510589;28;20066;-73
2021/01/06 18:31:40;;;;;;;25.08;8.68;;;;;;;7.91;100.00;94648.63;10509302;28;20082;-73
2021/01/06 18:36:40;;;;;;;12.98;5.82;;;;;;;7.89;100.00;94616.75;10509704;28;20380;-74
2021/01/06 18:41:42;;;;;;;16.03;6.57;;;;;;;7.77;100.00;94622.31;10528261;28;20403;-73
2021/01/06 18:46:47;;;;;;;9.82;5.13;;;;;;;7.91;100.00;94613.81;10510595;28;20020;-73
2021/01/06 18:51:52;;;;;;;13.93;6.13;;;;;;;7.87;100.00;94613.56;10538421;28;20024;-74
2021/01/06 18:57:06;;;;;;;17.40;6.45;;;;;;;7.83;100.00;94609.78;10508110;28;20028;-74
2021/01/06 19:02:08;;;;;;;12.27;5.57;;;;;;;7.88;100.00;94623.16;10496302;28;20564;-74
2021/01/06 19:07:19;;;;;;;21.38;7.60;;;;;;;7.89;100.00;94619.44;10518586;28;20111;-74
2021/01/06 19:12:19;;;;;;;14.32;7.82;;;;;;;7.72;100.00;94626.81;10529701;28;20475;-74
2021/01/06 19:17:20;;;;;;;16.67;8.60;;;;;;;7.49;100.00;94604.72;10529288;28;20027;-74
2021/01/06 19:22:20;;;;;;;16.20;8.77;;;;;;;7.64;100.00;94612.06;10527927;28;20052;-75
2021/01/06 19:27:20;;;;;;;17.83;7.53;;;;;;;7.69;100.00;94623.59;10529595;28;20726;-75
2021/01/06 19:32:21;;;;;;;17.58;9.02;;;;;;;7.76;100.00;94617.22;10529265;28;20357;-74
2021/01/06 19:37:23;;;;;;;15.15;7.63;;;;;;;7.79;100.00;94608.69;10527955;28;20032;-74
2021/01/06 19:42:28;;;;;;;13.25;7.38;;;;;;;7.81;100.00;94580.59;10527629;28;20028;-74
2021/01/06 19:47:28;;;;;;;16.27;7.53;;;;;;;7.76;100.00;94574.41;10487660;28;20025;-73
2021/01/06 19:52:28;;;;;;;14.60;7.53;;;;;;;7.65;100.00;94563.66;10497497;28;20032;-73
2021/01/06 19:57:29;;;;;;;20.67;8.70;;;;;;;7.69;100.00;94545.22;10514957;28;20028;-74
2021/01/06 20:02:31;;;;;;;18.60;8.40;;;;;;;7.42;100.00;94553.34;10519760;28;20028;-74
2021/01/06 20:07:33;;;;;;;25.38;10.77;;;;;;;7.07;100.00;94555.50;10520225;28;20079;-74
2021/01/06 20:12:33;;;;;;;24.65;11.95;;;;;;;7.19;100.00;94556.13;10524507;28;20028;-75
2021/01/06 20:17:34;;;;;;;22.40;11.43;;;;;;;6.94;100.00;94554.06;10529118;28;20036;-74
2021/01/06 20:22:35;;;;;;;21.67;10.00;;;;;;;7.13;100.00;94565.19;10511766;28;20313;-74
2021/01/06 20:27:35;;;;;;;19.38;10.27;;;;;;;7.00;100.00;94558.41;10487450;28;20392;-75
2021/01/06 20:32:36;;;;;;;23.13;10.93;;;;;;;6.95;100.00;94560.19;10472275;28;20043;-78
2021/01/06 20:37:37;;;;;;;21.37;10.90;;;;;;;6.52;100.00;94548.59;10492059;28;20297;-77
2021/01/06 20:42:37;;;;;;;22.27;11.85;;;;;;;6.33;100.00;94560.44;10539296;28;20274;-77
2021/01/06 20:47:39;;;;;;;25.83;11.32;;;;;;;6.38;100.00;94545.50;10529747;28;20799;-77
2021/01/06 20:52:39;;;;;;;25.17;12.40;;;;;;;6.10;100.00;94552.72;10511292;28;20078;-77
2021/01/06 20:57:40;;;;;;;25.93;12.73;;;;;;;5.91;100.00;94557.50;10487891;28;20453;-77
2021/01/06 21:02:40;;;;;;;30.57;12.60;;;;;;;6.09;100.00;94521.75;10470350;28;20815;-78
2021/01/06 21:07:40;;;;;;;26.03;13.40;;;;;;;6.12;100.00;94521.25;10487479;28;20335;-77
2021/01/06 21:12:42;;;;;;;27.73;14.60;;;;;;;5.97;100.00;94536.03;10487450;28;20282;-77
2021/01/06 21:17:46;;;;;;;31.45;15.25;;;;;;;5.86;100.00;94547.59;10487052;28;20056;-77
2021/01/06 21:22:46;;;;;;;34.15;16.15;;;;;;;6.08;100.00;94547.59;10490058;28;20515;-77
2021/01/06 21:27:47;;;;;;;25.90;15.20;;;;;;;5.97;100.00;94530.69;10494322;28;20024;-77
2021/01/06 21:32:47;;;;;;;33.88;17.55;;;;;;;5.87;100.00;94530.53;10535694;28;20055;-77
2021/01/06 21:37:47;;;;;;;34.67;16.83;;;;;;;5.70;100.00;94509.25;10517363;28;20020;-77
2021/01/06 21:42:48;;;;;;;32.40;16.67;;;;;;;5.72;100.00;94515.16;10535062;28;20266;-77
2021/01/06 21:47:48;;;;;;;35.50;17.87;;;;;;;5.64;100.00;94521.72;10535476;28;20790;-77
2021/01/06 21:52:48;;;;;;;38.00;19.85;;;;;;;5.75;100.00;94521.84;10534535;28;20035;-77
2021/01/06 21:57:49;;;;;;;42.23;20.03;;;;;;;5.74;100.00;94507.72;10535061;28;20735;-77
2021/01/06 22:02:49;;;;;;;41.45;17.23;;;;;;;5.71;100.00;94518.09;10535364;28;20019;-77
2021/01/06 22:07:51;;;;;;;28.23;15.03;;;;;;;5.89;100.00;94507.09;10534505;28;20036;-77
2021/01/06 22:12:51;;;;;;;34.20;15.32;;;;;;;5.85;100.00;94508.66;10533676;28;20726;-77
2021/01/06 22:17:51;;;;;;;31.73;14.77;;;;;;;6.02;100.00;94486.47;10515577;28;20115;-77
2021/01/06 22:22:52;;;;;;;27.37;13.57;;;;;;;6.08;100.00;94493.44;10533364;28;20270;-78
2021/01/06 22:27:52;;;;;;;26.30;13.83;;;;;;;6.24;100.00;94489.88;10533578;28;20028;-77
2021/01/06 22:32:52;;;;;;;25.67;12.82;;;;;;;6.37;100.00;94486.00;10531911;28;20341;-77
2021/01/06 22:37:53;;;;;;;34.03;16.40;;;;;;;6.52;100.00;94480.00;10533798;28;20016;-77
2021/01/06 22:42:53;;;;;;;29.95;14.57;;;;;;;6.51;100.00;94475.72;10532743;28;20258;-77
2021/01/06 22:47:54;;;;;;;23.67;13.38;;;;;;;6.55;100.00;94462.69;10519993;28;20028;-77
2021/01/06 22:52:54;;;;;;;22.88;13.32;;;;;;;6.56;100.00;94457.09;10509091;28;20037;-77
2021/01/06 22:57:54;;;;;;;26.33;13.93;;;;;;;6.59;100.00;94461.91;10472117;28;20460;-77
2021/01/06 23:02:55;;;;;;;28.77;16.75;;;;;;;6.52;100.00;94461.31;10525935;28;20032;-77
2021/01/06 23:07:56;;;;;;;31.73;14.98;;;;;;;6.39;100.00;94485.75;10490561;28;20063;-77
2021/01/06 23:12:56;;;;;;;29.73;15.10;;;;;;;6.49;100.00;94461.84;10490221;28;20036;-77
2021/01/06 23:17:56;;;;;;;26.87;15.70;;;;;;;6.13;100.00;94482.84;10505952;28;20023;-77
2021/01/06 23:22:57;;;;;;;28.50;15.17;;;;;;;6.33;100.00;94475.03;10513821;28;20028;-77
2021/01/06 23:27:57;;;;;;;35.47;17.67;;;;;;;6.24;100.00;94476.53;10531958;28;20020;-77
2021/01/06 23:32:58;;;;;;;31.37;16.53;;;;;;;6.34;100.00;94459.81;10531734;28;20077;-76